TIV85 KABI-KADS
Flight info
| Callsign | TIV85 |
|---|---|
| Flight time | N/A |
| Altitude | 10000 |
| Route | BWD305047 SPS HUSKA |
| Aircraft | C25B/L-SDE2E3FGHRWXY/LB1 |
Departure
| Time | N/A |
|---|---|
| Airport | Abilene Regional Airport (KABI) |
Arrival
| Time | 2026-04-20 02:19 |
|---|---|
| Airport | Addison Airport (KADS) |
| Time | Latitude | Longitude | Altitude | Speed | Heading |
|---|---|---|---|---|---|
| 2026-04-20 01:52 | 33.71684 | -98.74386 | 44975 ft | 422 kts | 47° |
| 2026-04-20 01:52 | 33.73136 | -98.71264 | 44415 ft | 434 kts | 60° |
| 2026-04-20 01:52 | 33.74095 | -98.67767 | 43602 ft | 449 kts | 73° |
| 2026-04-20 01:52 | 33.74536 | -98.64004 | 42826 ft | 459 kts | 81° |
| 2026-04-20 01:53 | 33.74664 | -98.60216 | 42291 ft | 460 kts | 91° |
| 2026-04-20 01:53 | 33.74228 | -98.56387 | 41556 ft | 465 kts | 104° |
| 2026-04-20 01:53 | 33.73240 | -98.52690 | 40795 ft | 466 kts | 116° |
| 2026-04-20 01:53 | 33.71797 | -98.49215 | 40036 ft | 466 kts | 122° |
| 2026-04-20 01:54 | 33.70287 | -98.45764 | 39272 ft | 469 kts | 122° |
| 2026-04-20 01:54 | 33.68748 | -98.42298 | 38428 ft | 470 kts | 123° |
| 2026-04-20 01:54 | 33.67212 | -98.38851 | 37653 ft | 466 kts | 123° |
| 2026-04-20 01:54 | 33.65698 | -98.35432 | 36886 ft | 462 kts | 123° |
| 2026-04-20 01:55 | 33.64195 | -98.32039 | 36136 ft | 459 kts | 123° |
| 2026-04-20 01:55 | 33.62705 | -98.28678 | 35397 ft | 454 kts | 123° |
| 2026-04-20 01:55 | 33.61367 | -98.25321 | 34600 ft | 455 kts | 116° |
| 2026-04-20 01:55 | 33.60488 | -98.21643 | 33457 ft | 454 kts | 106° |
| 2026-04-20 01:56 | 33.59759 | -98.18057 | 32409 ft | 428 kts | 107° |
| 2026-04-20 01:56 | 33.59066 | -98.14696 | 31439 ft | 404 kts | 105° |
| 2026-04-20 01:56 | 33.58393 | -98.11398 | 30477 ft | 411 kts | 105° |
| 2026-04-20 01:56 | 33.57719 | -98.08041 | 29440 ft | 415 kts | 104° |
| 2026-04-20 01:57 | 33.57034 | -98.04674 | 28453 ft | 416 kts | 104° |
| 2026-04-20 01:57 | 33.56348 | -98.01313 | 27298 ft | 418 kts | 104° |
| 2026-04-20 01:57 | 33.55648 | -97.97893 | 26168 ft | 422 kts | 104° |
| 2026-04-20 01:57 | 33.54965 | -97.94538 | 25185 ft | 419 kts | 103° |
| 2026-04-20 01:58 | 33.54291 | -97.91244 | 24222 ft | 400 kts | 103° |
| 2026-04-20 01:58 | 33.53632 | -97.88041 | 23225 ft | 393 kts | 103° |
| 2026-04-20 01:58 | 33.52987 | -97.84879 | 22300 ft | 388 kts | 103° |
| 2026-04-20 01:58 | 33.52342 | -97.81756 | 21383 ft | 383 kts | 103° |
| 2026-04-20 01:59 | 33.51712 | -97.78676 | 20477 ft | 379 kts | 103° |
| 2026-04-20 01:59 | 33.51080 | -97.75631 | 19583 ft | 375 kts | 103° |
| 2026-04-20 01:59 | 33.50460 | -97.72615 | 18701 ft | 371 kts | 103° |
| 2026-04-20 01:59 | 33.49855 | -97.69680 | 17796 ft | 365 kts | 103° |
| 2026-04-20 02:00 | 33.49254 | -97.66792 | 16948 ft | 344 kts | 103° |
| 2026-04-20 02:00 | 33.48680 | -97.64023 | 16102 ft | 341 kts | 103° |
| 2026-04-20 02:00 | 33.48120 | -97.61303 | 15322 ft | 333 kts | 103° |
| 2026-04-20 02:00 | 33.47566 | -97.58632 | 14540 ft | 328 kts | 103° |
| 2026-04-20 02:01 | 33.47021 | -97.56015 | 13763 ft | 316 kts | 103° |
| 2026-04-20 02:01 | 33.46493 | -97.53472 | 12995 ft | 312 kts | 103° |
| 2026-04-20 02:01 | 33.45969 | -97.50960 | 12253 ft | 309 kts | 104° |
| 2026-04-20 02:01 | 33.45450 | -97.48481 | 11523 ft | 305 kts | 104° |
| 2026-04-20 02:02 | 33.45030 | -97.46034 | 11012 ft | 294 kts | 94° |
| 2026-04-20 02:02 | 33.45016 | -97.43641 | 10991 ft | 290 kts | 91° |
| 2026-04-20 02:02 | 33.44870 | -97.41231 | 10998 ft | 296 kts | 95° |
| 2026-04-20 02:02 | 33.44741 | -97.38727 | 11003 ft | 303 kts | 92° |
| 2026-04-20 02:03 | 33.44676 | -97.36218 | 11018 ft | 300 kts | 92° |
| 2026-04-20 02:03 | 33.44598 | -97.33718 | 11018 ft | 302 kts | 92° |
| 2026-04-20 02:03 | 33.44488 | -97.31205 | 11012 ft | 302 kts | 93° |
| 2026-04-20 02:03 | 33.44383 | -97.28695 | 11009 ft | 301 kts | 92° |
| 2026-04-20 02:04 | 33.44296 | -97.26194 | 11012 ft | 300 kts | 92° |
| 2026-04-20 02:04 | 33.44200 | -97.23702 | 11012 ft | 300 kts | 92° |
| 2026-04-20 02:04 | 33.44102 | -97.21211 | 11010 ft | 300 kts | 92° |
| 2026-04-20 02:04 | 33.44009 | -97.18729 | 11012 ft | 304 kts | 92° |
| 2026-04-20 02:05 | 33.43913 | -97.16215 | 11011 ft | 299 kts | 92° |
| 2026-04-20 02:05 | 33.43810 | -97.13743 | 11017 ft | 299 kts | 92° |
| 2026-04-20 02:05 | 33.43717 | -97.11246 | 11011 ft | 301 kts | 92° |
| 2026-04-20 02:05 | 33.43621 | -97.08739 | 11021 ft | 302 kts | 92° |
| 2026-04-20 02:06 | 33.43510 | -97.06272 | 10906 ft | 294 kts | 92° |
| 2026-04-20 02:06 | 33.43420 | -97.03825 | 10561 ft | 295 kts | 92° |
| 2026-04-20 02:06 | 33.43319 | -97.01407 | 10182 ft | 286 kts | 93° |
| 2026-04-20 02:06 | 33.43232 | -96.99061 | 9792 ft | 278 kts | 92° |
| 2026-04-20 02:07 | 33.43129 | -96.96777 | 9400 ft | 273 kts | 94° |
| 2026-04-20 02:07 | 33.43044 | -96.94552 | 9046 ft | 268 kts | 93° |
| 2026-04-20 02:07 | 33.42885 | -96.92355 | 8641 ft | 260 kts | 103° |
| 2026-04-20 02:07 | 33.42281 | -96.90371 | 8295 ft | 247 kts | 117° |
| 2026-04-20 02:08 | 33.41465 | -96.88616 | 7994 ft | 238 kts | 122° |
| 2026-04-20 02:08 | 33.40668 | -96.86913 | 7706 ft | 233 kts | 121° |
| 2026-04-20 02:08 | 33.39872 | -96.85210 | 7400 ft | 235 kts | 121° |
| 2026-04-20 02:08 | 33.38999 | -96.83573 | 7104 ft | 232 kts | 135° |
| 2026-04-20 02:09 | 33.37758 | -96.82362 | 6904 ft | 228 kts | 145° |
| 2026-04-20 02:09 | 33.36502 | -96.81214 | 6743 ft | 227 kts | 144° |
| 2026-04-20 02:09 | 33.35286 | -96.79985 | 6488 ft | 231 kts | 140° |
| 2026-04-20 02:09 | 33.34107 | -96.78732 | 6211 ft | 226 kts | 141° |
| 2026-04-20 02:10 | 33.32803 | -96.77788 | 5947 ft | 216 kts | 158° |
| 2026-04-20 02:10 | 33.31398 | -96.77279 | 5689 ft | 208 kts | 171° |
| 2026-04-20 02:10 | 33.29969 | -96.77216 | 5445 ft | 204 kts | 182° |
| 2026-04-20 02:10 | 33.28598 | -96.77555 | 5211 ft | 200 kts | 195° |
| 2026-04-20 02:11 | 33.27346 | -96.78257 | 4965 ft | 199 kts | 208° |
| 2026-04-20 02:11 | 33.26265 | -96.79277 | 4725 ft | 198 kts | 218° |
| 2026-04-20 02:11 | 33.25242 | -96.80361 | 4499 ft | 195 kts | 217° |
| 2026-04-20 02:11 | 33.24221 | -96.81403 | 4275 ft | 191 kts | 217° |
| 2026-04-20 02:12 | 33.23217 | -96.82451 | 4040 ft | 193 kts | 218° |
| 2026-04-20 02:12 | 33.22214 | -96.83503 | 3803 ft | 195 kts | 219° |
| 2026-04-20 02:12 | 33.21195 | -96.84560 | 3573 ft | 194 kts | 217° |
| 2026-04-20 02:12 | 33.20181 | -96.85613 | 3343 ft | 193 kts | 219° |
| 2026-04-20 02:13 | 33.19179 | -96.86672 | 3091 ft | 191 kts | 217° |
| 2026-04-20 02:13 | 33.18183 | -96.87696 | 2886 ft | 187 kts | 219° |
| 2026-04-20 02:13 | 33.17237 | -96.88701 | 2644 ft | 177 kts | 219° |
| 2026-04-20 02:13 | 33.16320 | -96.89641 | 2448 ft | 176 kts | 217° |
| 2026-04-20 02:14 | 33.15330 | -96.90517 | 2226 ft | 177 kts | 202° |
| 2026-04-20 02:14 | 33.14159 | -96.90857 | 2103 ft | 167 kts | 183° |
| 2026-04-20 02:14 | 33.13067 | -96.90730 | 2091 ft | 156 kts | 163° |
| 2026-04-20 02:14 | 33.12065 | -96.90282 | 2091 ft | 155 kts | 159° |
| 2026-04-20 02:15 | 33.11038 | -96.89856 | 2089 ft | 155 kts | 159° |
| 2026-04-20 02:15 | 33.10032 | -96.89407 | 2100 ft | 156 kts | 159° |
| 2026-04-20 02:15 | 33.09007 | -96.88971 | 2098 ft | 157 kts | 159° |
| 2026-04-20 02:15 | 33.07978 | -96.88511 | 2103 ft | 158 kts | 159° |
| 2026-04-20 02:16 | 33.06962 | -96.88067 | 2092 ft | 153 kts | 159° |
| 2026-04-20 02:16 | 33.05972 | -96.87634 | 2095 ft | 151 kts | 159° |
| 2026-04-20 02:16 | 33.04991 | -96.87206 | 2091 ft | 144 kts | 159° |
| 2026-04-20 02:16 | 33.04086 | -96.86807 | 2028 ft | 140 kts | 159° |
| 2026-04-20 02:17 | 33.03171 | -96.86407 | 1934 ft | 132 kts | 158° |
| 2026-04-20 02:17 | 33.02355 | -96.86032 | 1784 ft | 123 kts | 158° |
| 2026-04-20 02:17 | 33.01559 | -96.85669 | 1578 ft | 122 kts | 158° |
| 2026-04-20 02:17 | 33.00760 | -96.85324 | 1360 ft | 122 kts | 158° |
| 2026-04-20 02:18 | 32.99966 | -96.84986 | 1208 ft | 121 kts | 159° |
| 2026-04-20 02:18 | 32.99179 | -96.84654 | 1039 ft | 118 kts | 159° |
| 2026-04-20 02:18 | 32.98420 | -96.84328 | 857 ft | 114 kts | 159° |
| 2026-04-20 02:18 | 32.97682 | -96.84005 | 697 ft | 110 kts | 160° |
| 2026-04-20 02:19 | 32.97011 | -96.83715 | 640 ft | 92 kts | 159° |
| 2026-04-20 02:19 | 32.96657 | -96.83560 | 637 ft | 26 kts | 160° |
| 2026-04-20 02:19 | 32.96521 | -96.83500 | 636 ft | 18 kts | 160° |
| 2026-04-20 02:19 | 32.96482 | -96.83428 | 636 ft | 10 kts | 69° |
| 2026-04-20 02:20 | 32.96481 | -96.83384 | 637 ft | 1 kts | 139° |
| 2026-04-20 02:20 | 32.96435 | -96.83357 | 638 ft | 16 kts | 159° |
| 2026-04-20 02:20 | 32.96324 | -96.83310 | 638 ft | 18 kts | 160° |
| 2026-04-20 02:21 | 32.96092 | -96.83208 | 639 ft | 17 kts | 160° |
| 2026-04-20 02:21 | 32.96018 | -96.83170 | 639 ft | 4 kts | 97° |
| 2026-04-20 02:21 | 32.96055 | -96.83143 | 639 ft | 12 kts | 340° |
| 2026-04-20 02:22 | 32.96125 | -96.83145 | 639 ft | 10 kts | 103° |
| 2026-04-20 02:22 | 32.96102 | -96.83127 | 639 ft | 0 kts | 165° |